createdAt,value
2022-09-04T00:00:15.624Z,5.93
2022-09-04T00:05:23.959Z,7.35
2022-09-04T00:10:32.491Z,8.18
2022-09-04T00:15:43.406Z,7.85
2022-09-04T00:20:51.787Z,7.72
2022-09-04T00:26:02.790Z,7.70
2022-09-04T00:31:18.501Z,8.35
2022-09-04T00:36:25.523Z,8.20
2022-09-04T00:41:31.808Z,7.68
2022-09-04T00:46:53.314Z,7.47
2022-09-04T00:52:07.133Z,7.57
2022-09-04T00:57:46.439Z,8.43
2022-09-04T01:03:15.497Z,10.18
2022-09-04T01:08:31.251Z,8.80
2022-09-04T01:13:41.547Z,9.18
2022-09-04T01:18:53.403Z,10.80
2022-09-04T01:24:32.811Z,11.10
2022-09-04T01:29:47.895Z,9.65
2022-09-04T01:34:59.718Z,10.55
2022-09-04T01:40:18.313Z,10.20
2022-09-04T01:45:31.278Z,9.73
2022-09-04T01:50:36.141Z,9.48
2022-09-04T01:55:45.900Z,10.35
2022-09-04T02:01:01.110Z,10.38
2022-09-04T02:06:13.778Z,10.95
2022-09-04T02:11:19.447Z,9.95
2022-09-04T02:16:42.849Z,10.43
2022-09-04T02:21:52.475Z,11.13
2022-09-04T02:27:01.902Z,10.82
2022-09-04T02:32:12.556Z,11.13
2022-09-04T02:37:23.390Z,10.63
2022-09-04T02:42:32.556Z,11.25
2022-09-04T02:47:45.934Z,10.55
2022-09-04T02:53:02.301Z,11.50
2022-09-04T02:58:18.116Z,11.85
2022-09-04T03:03:29.012Z,10.98
2022-09-04T03:08:37.760Z,13.13
2022-09-04T03:13:47.782Z,12.27
2022-09-04T03:19:05.194Z,14.75
2022-09-04T03:24:18.950Z,11.43
2022-09-04T03:29:31.517Z,11.57
2022-09-04T03:34:45.097Z,13.55
2022-09-04T03:40:02.300Z,13.23
2022-09-04T03:45:19.800Z,13.10
2022-09-04T03:50:32.228Z,13.05
2022-09-04T03:56:08.617Z,12.93
2022-09-04T04:01:25.189Z,15.80
2022-09-04T04:06:38.027Z,15.85
2022-09-04T04:11:55.584Z,13.98
2022-09-04T04:17:07.726Z,14.43
2022-09-04T04:22:42.396Z,13.77
2022-09-04T04:28:00.741Z,13.88
2022-09-04T04:33:19.434Z,14.40
2022-09-04T04:38:48.154Z,16.23
2022-09-04T04:44:06.070Z,13.95
2022-09-04T04:49:34.172Z,13.20
2022-09-04T04:54:53.970Z,13.15
2022-09-04T05:00:08.301Z,13.27
2022-09-04T05:05:17.607Z,12.57
2022-09-04T05:10:30.963Z,13.07
2022-09-04T05:16:05.003Z,12.68
2022-09-04T05:21:14.047Z,12.93
2022-09-04T05:26:27.584Z,12.80
2022-09-04T05:31:40.265Z,12.98
2022-09-04T05:36:52.322Z,15.48
2022-09-04T05:42:07.961Z,13.35
2022-09-04T05:47:20.317Z,13.10
2022-09-04T05:52:42.928Z,12.77
2022-09-04T05:58:02.014Z,13.07
2022-09-04T06:03:33.761Z,12.02
2022-09-04T06:08:53.745Z,12.50
2022-09-04T06:14:14.505Z,12.88
2022-09-04T06:19:35.174Z,11.07
2022-09-04T06:25:13.646Z,11.70
2022-09-04T06:30:19.047Z,13.55
2022-09-04T06:35:47.202Z,11.88
2022-09-04T06:41:02.234Z,13.15
2022-09-04T06:46:21.824Z,12.23
2022-09-04T06:51:42.296Z,12.48
2022-09-04T06:57:03.586Z,11.30
2022-09-04T07:02:22.067Z,11.73
2022-09-04T07:07:32.358Z,12.45
2022-09-04T07:12:56.657Z,11.27
2022-09-04T07:18:10.481Z,13.13
2022-09-04T07:23:25.561Z,12.73
2022-09-04T07:28:43.038Z,10.68
2022-09-04T07:33:56.535Z,12.68
2022-09-04T07:39:06.616Z,13.05
2022-09-04T07:44:17.053Z,13.10
2022-09-04T07:49:30.839Z,12.95
2022-09-04T07:54:59.069Z,13.43
2022-09-04T08:00:09.580Z,13.05
2022-09-04T08:05:24.497Z,14.65
2022-09-04T08:10:32.449Z,14.18
2022-09-04T08:15:43.940Z,13.77
2022-09-04T08:20:56.839Z,10.68
2022-09-04T08:26:14.549Z,12.15
2022-09-04T08:31:26.472Z,12.57
2022-09-04T08:36:35.998Z,12.98
2022-09-04T08:42:04.948Z,11.13
2022-09-04T08:47:35.594Z,10.43
2022-09-04T08:53:10.299Z,11.60
2022-09-04T08:58:47.952Z,10.27
2022-09-04T09:04:29.032Z,11.95
2022-09-04T09:10:11.502Z,12.50
2022-09-04T09:15:39.990Z,10.35
2022-09-04T09:20:50.656Z,12.20
2022-09-04T09:26:06.660Z,12.85
2022-09-04T09:32:01.640Z,9.82
2022-09-04T09:37:45.586Z,10.20
2022-09-04T09:43:30.148Z,6.13
2022-09-04T09:48:57.017Z,6.78
2022-09-04T09:54:31.645Z,7.75
2022-09-04T10:00:07.030Z,6.20
2022-09-04T10:06:01.152Z,6.32
2022-09-04T10:11:52.719Z,6.63
2022-09-04T10:17:25.015Z,9.52
2022-09-04T10:22:57.783Z,7.22
2022-09-04T10:28:30.161Z,3.35
2022-09-04T10:33:49.928Z,5.15
2022-09-04T10:39:26.337Z,6.15
2022-09-04T10:45:17.391Z,5.20
2022-09-04T10:50:41.325Z,7.88
2022-09-04T10:56:00.132Z,5.35
2022-09-04T11:01:23.688Z,3.67
2022-09-04T11:06:49.516Z,3.58
2022-09-04T11:12:31.564Z,4.03
2022-09-04T11:18:10.309Z,3.67
2022-09-04T11:24:06.939Z,4.07
2022-09-04T11:29:31.715Z,4.40
2022-09-04T11:35:19.404Z,2.55
2022-09-04T11:40:55.361Z,3.45
2022-09-04T11:46:26.237Z,2.20
2022-09-04T11:52:04.024Z,2.47
2022-09-04T11:57:16.073Z,4.90
2022-09-04T12:02:34.231Z,2.90
2022-09-04T12:07:59.443Z,6.45
2022-09-04T12:13:32.031Z,3.42
2022-09-04T12:19:21.228Z,3.85
2022-09-04T12:24:52.217Z,2.70
2022-09-04T12:30:06.801Z,2.15
2022-09-04T12:35:36.814Z,3.13
2022-09-04T12:40:49.103Z,4.35
2022-09-04T12:46:06.070Z,4.38
2022-09-04T12:51:16.851Z,3.40
2022-09-04T12:56:29.650Z,3.95
2022-09-04T13:01:45.094Z,9.27
2022-09-04T13:07:02.019Z,2.22
2022-09-04T13:12:21.808Z,3.40
2022-09-04T13:17:34.970Z,3.42
2022-09-04T13:22:52.856Z,2.28
2022-09-04T13:28:11.348Z,1.90
2022-09-04T13:33:40.044Z,1.98
2022-09-04T13:39:22.543Z,2.50
2022-09-04T13:44:55.567Z,1.48
2022-09-04T13:50:08.619Z,2.33
2022-09-04T13:55:18.107Z,3.08
2022-09-04T14:00:22.518Z,2.72
2022-09-04T14:05:27.268Z,5.75
2022-09-04T14:10:47.021Z,2.72
2022-09-04T14:16:03.964Z,2.35
2022-09-04T14:21:18.673Z,2.20
2022-09-04T14:26:35.776Z,2.00
2022-09-04T14:31:46.838Z,2.50
2022-09-04T14:37:00.455Z,2.75
2022-09-04T14:42:35.723Z,3.63
2022-09-04T14:47:45.498Z,2.55
2022-09-04T14:52:55.817Z,3.47
2022-09-04T14:58:06.410Z,1.80
2022-09-04T15:03:19.292Z,1.40
2022-09-04T15:08:28.851Z,2.30
2022-09-04T15:13:46.746Z,2.35
2022-09-04T15:19:00.059Z,3.85
2022-09-04T15:24:26.584Z,1.77
2022-09-04T15:29:39.643Z,4.43
2022-09-04T15:34:44.879Z,0.93
2022-09-04T15:39:59.870Z,3.80
2022-09-04T15:45:11.998Z,1.70
2022-09-04T15:50:22.553Z,1.42
2022-09-04T15:55:28.800Z,3.75
2022-09-04T16:00:36.764Z,1.38
2022-09-04T16:05:45.211Z,1.45
2022-09-04T16:10:57.614Z,3.28
2022-09-04T16:16:07.723Z,2.20
2022-09-04T16:21:21.373Z,2.80
2022-09-04T16:26:29.350Z,3.08
2022-09-04T16:31:35.787Z,3.75
2022-09-04T16:36:48.719Z,1.67
2022-09-04T16:41:59.182Z,2.25
2022-09-04T16:47:10.574Z,2.45
2022-09-04T16:52:45.668Z,2.45
2022-09-04T16:58:02.336Z,2.65
2022-09-04T17:03:34.333Z,3.60
2022-09-04T17:08:49.625Z,2.33
2022-09-04T17:13:58.978Z,0.82
2022-09-04T17:19:15.274Z,1.73
2022-09-04T17:29:02.125Z,2.42
2022-09-04T17:29:57.540Z,3.53
2022-09-04T17:40:41.685Z,3.63
2022-09-04T17:46:24.705Z,2.72
2022-09-04T17:51:32.128Z,2.55
2022-09-04T17:56:40.921Z,2.30
2022-09-04T18:01:52.420Z,6.20
2022-09-04T18:07:56.867Z,8.30
2022-09-04T18:12:38.956Z,4.22
2022-09-04T18:17:51.144Z,1.90
2022-09-04T18:23:17.701Z,0.93
2022-09-04T18:28:27.959Z,1.60
2022-09-04T18:37:26.902Z,3.78
2022-09-04T18:39:10.081Z,3.72
2022-09-04T18:50:23.163Z,1.67
2022-09-04T18:50:31.107Z,4.70
2022-09-04T18:55:18.406Z,3.38
2022-09-04T19:00:30.376Z,4.60
2022-09-04T19:05:44.767Z,3.13
2022-09-04T19:10:52.343Z,3.63
2022-09-04T19:16:02.918Z,4.60
2022-09-04T19:21:18.743Z,3.63
2022-09-04T19:26:34.898Z,2.83
2022-09-04T19:31:44.605Z,5.07
2022-09-04T19:36:52.994Z,3.95
2022-09-04T19:46:09.467Z,5.32
2022-09-04T19:47:46.936Z,3.40
2022-09-04T19:53:31.359Z,3.70
2022-09-04T19:58:20.020Z,6.00
2022-09-04T20:03:31.034Z,5.95
2022-09-04T20:08:41.790Z,8.70
2022-09-04T20:13:51.944Z,9.25
2022-09-04T20:19:01.444Z,4.78
2022-09-04T20:24:08.593Z,6.78
2022-09-04T20:29:19.626Z,5.72
2022-09-04T20:34:31.195Z,3.70
2022-09-04T20:39:43.794Z,5.65
2022-09-04T20:46:48.619Z,7.72
2022-09-04T20:52:51.379Z,8.10
2022-09-04T20:56:08.377Z,3.95
2022-09-04T21:03:18.784Z,7.05
2022-09-04T21:06:48.599Z,5.43
2022-09-04T21:11:54.653Z,5.40
2022-09-04T21:17:35.246Z,5.63
2022-09-04T21:23:04.184Z,7.28
2022-09-04T21:28:31.364Z,3.72
2022-09-04T21:33:42.612Z,3.90
2022-09-04T21:39:04.695Z,8.27
2022-09-04T21:44:55.840Z,5.38
2022-09-04T21:50:35.343Z,6.75
2022-09-04T21:59:15.413Z,5.28
2022-09-04T22:02:40.788Z,5.10
2022-09-04T22:08:20.472Z,6.20
2022-09-04T22:13:39.427Z,6.38
2022-09-04T22:18:21.706Z,5.28
2022-09-04T22:23:56.593Z,6.68
2022-09-04T22:29:35.378Z,8.75
2022-09-04T22:35:14.569Z,5.70
2022-09-04T22:40:33.467Z,6.63
2022-09-04T22:46:30.648Z,6.80
2022-09-04T22:51:47.941Z,8.93
2022-09-04T22:56:54.866Z,7.40
2022-09-04T23:03:04.065Z,9.20
2022-09-04T23:13:41.938Z,8.77
2022-09-04T23:14:07.749Z,14.25
2022-09-04T23:23:41.556Z,8.52
2022-09-04T23:26:47.343Z,7.47
2022-09-04T23:30:53.264Z,11.93
2022-09-04T23:36:04.058Z,7.88
2022-09-04T23:41:19.138Z,13.50
2022-09-04T23:46:38.623Z,11.13
2022-09-04T23:51:50.155Z,8.45
2022-09-04T23:57:00.804Z,8.15
